Aérodrome :
LOGIN :

S'inscrire | Disclaimer

   EN    FR    IT 

 










Légende :    VFR   VFR Marginal   IFR   IFR Intensif   IFR Très Intensif
Visi : 
Plafond : 
>= 8 km
>= 3000ft
5 à 8 km
1000 à 3000 ft
1500m à 5 km
500 à 1000 ft
800 à 1500m
200 à 500 ft
< 800m
< 200 ft
Symboles :   Orages  Brouillard  Fortes neiges  Fortes précipitations  Vent > 20 kt
SIGMETs :   Divers  Orages  Givrage  Turbulence  Onde Orograph.  Cendres Volcan.







- Altitude de l'aérodrome : 220 ft
- Code IATA : CWL
- Voir les cartes d'approche


EGFF - Cardiff Rhoose

DERNIER METAR :
  • 161750Z AUTO 27014KT 9999 NCD 18/12 Q1014

METARs EXPIRÉS :
  • 161720Z AUTO 27015KT 9999 NCD 18/11 Q1014
  • 161650Z AUTO 28015KT 250V310 9999 NCD 19/12 Q1014
  • 161620Z AUTO 28016KT 9999 NCD 19/13 Q1014
  • 161550Z AUTO 28016KT 240V300 9999 FEW020 BKN044 20/13 Q1014
  • 161520Z 27014KT 9999 FEW012 19/14 Q1014
  • 161450Z AUTO 28013KT 9999 SCT009 18/16 Q1014

TAF TAF EGFF
Valide du 16 à 18h jusqu'au 17 à 18h UTC


161654Z 1618/1718 28012KT 9999 SCT045
PROB30 1700/1706 8000
ATIS : +44 1446 729 319
Pas de NOTAMs connus pour ce terrain.
1 SIGMET publié pour la FIR London (EGTT) :
 
Orages noyés dans la masse
EGTT SIGMET 02 VALID 161740/162000 EGRR
EGTT LONDON FIR EMBD TS FCST WI N5336 W00326 - N5332 W00250 - N5235 W00247 - N5235 W00325 - N5336 W00326 TOP FL270 MOV NE 15KT NC=



MET'MAP, la Météo Aéronautique d'un coup d'oeil ! - Copyright ORBIFLY Décembre 2007 - Disclaimer

ORBIFLY MET'MAP TEAM :

Programmation & Développement : Alexandra Zaïnal
Conception & Développement : Baudouin d'Aumeries
Co-Programmation & Développement : Marc-Olivier Méhu
Soutien technique & logistique : Manuel Goepfert

Contact : metmap@orbifly.com




SOURCES & CREDITS :

   NOAA